createdAt,value
2023-02-08T00:02:42.580Z,103858.69
2023-02-08T00:10:17.935Z,103856.47
2023-02-08T00:17:51.776Z,103858.94
2023-02-08T00:25:27.047Z,103866.78
2023-02-08T00:33:01.511Z,103873.69
2023-02-08T00:40:36.892Z,103859.53
2023-02-08T00:48:10.752Z,103862.69
2023-02-08T00:55:53.019Z,103864.91
2023-02-08T01:03:27.467Z,103866.25
2023-02-08T01:11:07.602Z,103864.75
2023-02-08T01:18:43.183Z,103867.38
2023-02-08T01:26:20.914Z,103858.97
2023-02-08T01:33:54.884Z,103856.97
2023-02-08T01:41:33.311Z,103853.03
2023-02-08T01:49:12.337Z,103854.69
2023-02-08T02:04:40.317Z,103861.41
2023-02-08T02:12:16.100Z,103857.91
2023-02-08T02:20:00.969Z,103854.72
2023-02-08T02:27:56.558Z,103866.44
2023-02-08T02:35:42.539Z,103862.53
2023-02-08T02:43:39.876Z,103869.44
2023-02-08T02:51:19.899Z,103868.69
2023-02-08T02:58:57.312Z,103871.31
2023-02-08T03:06:47.055Z,103868.13
2023-02-08T03:14:39.797Z,103870.72
2023-02-08T03:22:18.405Z,103867.19
2023-02-08T03:29:59.564Z,103855.59
2023-02-08T03:37:40.721Z,103871.44
2023-02-08T03:45:20.180Z,103859.91
2023-02-08T03:52:57.566Z,103858.78
2023-02-08T04:00:35.441Z,103856.75
2023-02-08T04:08:11.065Z,103863.44
2023-02-08T04:15:45.274Z,103856.19
2023-02-08T04:23:20.555Z,103856.19
2023-02-08T04:30:57.427Z,103860.25
2023-02-08T04:38:32.639Z,103857.28
2023-02-08T04:46:06.786Z,103853.00
2023-02-08T04:53:42.204Z,103864.00
2023-02-08T05:01:17.519Z,103859.69
2023-02-08T05:08:52.803Z,103858.94
2023-02-08T05:16:26.974Z,103871.78
2023-02-08T05:24:02.208Z,103859.69
2023-02-08T05:31:36.603Z,103866.56
2023-02-08T05:39:12.106Z,103874.75
2023-02-08T05:46:46.382Z,103875.50
2023-02-08T05:54:21.708Z,103875.72
2023-02-08T06:01:56.652Z,103875.91
2023-02-08T06:09:31.848Z,103884.81
2023-02-08T06:17:05.727Z,103888.75
2023-02-08T06:24:41.028Z,103891.94
2023-02-08T06:32:14.962Z,103899.38
2023-02-08T06:39:50.312Z,103898.63
2023-02-08T06:47:24.757Z,103904.00
2023-02-08T06:55:00.009Z,103914.63
2023-02-08T07:02:34.238Z,103916.47
2023-02-08T07:10:10.165Z,103916.09
2023-02-08T07:17:44.274Z,103905.31
2023-02-08T07:25:19.805Z,103904.59
2023-02-08T07:32:53.710Z,103903.31
2023-02-08T07:40:28.958Z,103900.03
2023-02-08T07:48:02.775Z,103910.81
2023-02-08T07:55:38.096Z,103906.56
2023-02-08T08:03:12.419Z,103911.13
2023-02-08T08:10:48.165Z,103923.44
2023-02-08T08:18:22.083Z,103934.53
2023-02-08T08:25:57.425Z,103931.06
2023-02-08T08:33:31.241Z,103938.38
2023-02-08T08:41:09.877Z,103930.84
2023-02-08T08:48:43.859Z,103917.13
2023-02-08T08:56:19.138Z,103903.94
2023-02-08T09:03:53.565Z,103896.31
2023-02-08T09:11:29.033Z,103898.03
2023-02-08T09:19:03.228Z,103894.44
2023-02-08T09:26:39.380Z,103898.91
2023-02-08T09:34:13.438Z,103906.94
2023-02-08T09:42:01.256Z,103905.63
2023-02-08T09:49:39.311Z,103906.75
2023-02-08T09:57:18.139Z,103898.34
2023-02-08T10:04:58.908Z,103883.78
2023-02-08T10:12:58.763Z,103865.53
2023-02-08T10:20:45.125Z,103863.34
2023-02-08T10:28:39.481Z,103845.03
2023-02-08T10:36:16.245Z,103850.91
2023-02-08T10:44:02.642Z,103840.31
2023-02-08T10:51:37.225Z,103823.94
2023-02-08T10:59:21.092Z,103820.41
2023-02-08T11:06:56.076Z,103812.53
2023-02-08T11:14:46.165Z,103802.50
2023-02-08T11:22:23.225Z,103797.06
2023-02-08T11:30:19.286Z,103790.28
2023-02-08T11:37:55.750Z,103794.28
2023-02-08T11:45:34.454Z,103787.50
2023-02-08T11:53:23.432Z,103789.03
2023-02-08T12:01:04.670Z,103784.41
2023-02-08T12:08:46.640Z,103783.03
2023-02-08T12:16:47.186Z,103769.72
2023-02-08T12:24:32.155Z,103785.19
2023-02-08T12:32:31.077Z,103791.06
2023-02-08T12:40:39.871Z,103785.94
2023-02-08T12:48:37.184Z,103784.06
2023-02-08T12:56:17.030Z,103779.25
2023-02-08T13:03:57.704Z,103764.84
2023-02-08T13:11:37.461Z,103767.50
2023-02-08T13:19:27.922Z,103756.63
2023-02-08T13:27:02.411Z,103746.66
2023-02-08T13:34:42.049Z,103724.19
2023-02-08T13:42:28.797Z,103722.47
2023-02-08T13:50:07.810Z,103718.91
2023-02-08T13:57:53.181Z,103718.75
2023-02-08T14:05:45.988Z,103709.16
2023-02-08T14:13:32.306Z,103708.97
2023-02-08T14:21:09.448Z,103695.44
2023-02-08T14:28:48.835Z,103695.59
2023-02-08T14:36:30.205Z,103674.84
2023-02-08T14:44:55.611Z,103683.41
2023-02-08T14:52:31.331Z,103669.75
2023-02-08T15:00:08.816Z,103673.34
2023-02-08T15:07:50.703Z,103669.06
2023-02-08T15:15:30.270Z,103664.72
2023-02-08T15:23:07.684Z,103644.47
2023-02-08T15:30:42.802Z,103629.94
2023-02-08T15:38:22.258Z,103629.03
2023-02-08T15:46:00.288Z,103619.00
2023-02-08T15:53:37.195Z,103612.09
2023-02-08T16:01:19.907Z,103616.94
2023-02-08T16:08:59.767Z,103619.25
2023-02-08T16:16:42.159Z,103613.41
2023-02-08T16:24:27.191Z,103621.66
2023-02-08T16:32:11.168Z,103632.94
2023-02-08T16:40:00.368Z,103617.19
2023-02-08T16:47:40.038Z,103619.34
2023-02-08T16:55:20.718Z,103622.25
2023-02-08T17:02:56.131Z,103613.28
2023-02-08T17:10:33.513Z,103610.97
2023-02-08T17:18:08.450Z,103604.16
2023-02-08T17:25:44.140Z,103601.53
2023-02-08T17:33:21.250Z,103601.66
2023-02-08T17:40:56.546Z,103587.59
2023-02-08T17:48:30.388Z,103584.97
2023-02-08T17:56:08.276Z,103581.25
2023-02-08T18:03:42.059Z,103572.00
2023-02-08T18:11:20.210Z,103566.84
2023-02-08T18:18:56.675Z,103560.22
2023-02-08T18:26:33.548Z,103556.81
2023-02-08T18:34:07.350Z,103563.09
2023-02-08T18:41:43.381Z,103537.78
2023-02-08T18:49:17.766Z,103531.44
2023-02-08T18:56:55.834Z,103519.94
2023-02-08T19:04:30.648Z,103512.19
2023-02-08T19:12:07.543Z,103507.72
2023-02-08T19:19:42.231Z,103493.19
2023-02-08T19:27:17.391Z,103483.28
2023-02-08T19:34:51.253Z,103466.91
2023-02-08T19:42:26.500Z,103463.03
2023-02-08T19:50:00.293Z,103472.63
2023-02-08T19:57:38.420Z,103459.19
2023-02-08T20:05:12.255Z,103431.09
2023-02-08T20:12:48.002Z,103437.28
2023-02-08T20:20:22.612Z,103430.19
2023-02-08T20:27:58.264Z,103433.84
2023-02-08T20:35:32.261Z,103430.91
2023-02-08T20:43:07.517Z,103427.19
2023-02-08T20:50:41.502Z,103425.97
2023-02-08T20:58:16.865Z,103406.16
2023-02-08T21:05:50.709Z,103403.22
2023-02-08T21:13:25.789Z,103396.56
2023-02-08T21:21:01.617Z,103398.00
2023-02-08T21:28:36.979Z,103386.88
2023-02-08T21:36:13.746Z,103385.03
2023-02-08T21:43:49.604Z,103382.09
2023-02-08T21:51:41.849Z,103370.19
2023-02-08T21:59:17.235Z,103361.13
2023-02-08T22:06:52.079Z,103344.44
2023-02-08T22:14:27.401Z,103338.38
2023-02-08T22:22:03.415Z,103328.69
2023-02-08T22:29:38.895Z,103328.94
2023-02-08T22:37:12.973Z,103326.00
2023-02-08T22:44:48.208Z,103315.66
2023-02-08T22:52:21.990Z,103313.66
2023-02-08T22:59:57.046Z,103301.16
2023-02-08T23:07:30.861Z,103291.59
2023-02-08T23:15:06.184Z,103294.78
2023-02-08T23:22:40.082Z,103292.00
2023-02-08T23:30:16.060Z,103285.88
2023-02-08T23:37:50.087Z,103286.16
2023-02-08T23:45:26.227Z,103275.38
2023-02-08T23:53:00.128Z,103268.25
